Time;durP1;ratioP1;P1;durP2;ratioP2;P2;SDS_P1;SDS_P2;PMS_P1;PMS_P2;Temp;Humidity;BMP_temperature;BMP_pressure;BME280_temperature;BME280_humidity;BME280_pressure;Samples;Min_cycle;Max_cycle;Signal;HPM_P1;HPM_P2
2021/04/02 00:01:13;;;;;;;22.27;11.48;;;;;;;12.26;76.07;98689.41;4494264;78;28626;-90
2021/04/02 00:07:15;;;;;;;24.63;11.60;;;;;;;12.34;75.27;98687.33;4506348;78;28537;-90
2021/04/02 00:13:20;;;;;;;24.47;11.48;;;;;;;12.36;76.91;98683.31;4509467;79;28542;-90
2021/04/02 00:19:22;;;;;;;22.70;11.35;;;;;;;12.35;75.26;98693.02;4465761;79;28566;-90
2021/04/02 00:25:24;;;;;;;28.80;12.13;;;;;;;12.41;74.92;98682.56;4500580;79;28611;-90
2021/04/02 00:31:26;;;;;;;25.05;11.43;;;;;;;12.35;77.29;98677.65;4504105;78;28598;-89
2021/04/02 00:37:28;;;;;;;21.90;11.38;;;;;;;12.33;79.72;98683.00;4508753;78;28604;-83
2021/04/02 00:43:37;;;;;;;19.65;10.70;;;;;;;12.26;82.03;98679.16;4506912;78;28644;-88
2021/04/02 00:49:40;;;;;;;26.50;11.75;;;;;;;12.20;82.83;98676.92;4480917;79;28538;-88
2021/04/02 00:55:43;;;;;;;23.20;11.85;;;;;;;12.19;82.30;98679.34;4497489;79;28547;-90
2021/04/02 01:01:45;;;;;;;21.65;10.75;;;;;;;12.03;92.41;98681.55;4495740;78;28547;-87
2021/04/02 01:07:58;;;;;;;21.52;11.05;;;;;;;11.85;100.00;98684.80;4514535;78;28545;-86
2021/04/02 01:14:00;;;;;;;23.62;11.45;;;;;;;11.77;100.00;98693.30;4512927;78;28545;-86
2021/04/02 01:20:06;;;;;;;30.35;13.08;;;;;;;11.61;100.00;98701.69;4515045;79;28541;-87
2021/04/02 01:26:29;;;;;;;29.20;12.65;;;;;;;11.79;100.00;98718.11;4477595;78;28549;-90
2021/04/02 01:32:38;;;;;;;19.23;10.88;;;;;;;14.16;100.00;98722.92;4518330;78;28536;-87
2021/04/02 01:38:42;;;;;;;20.02;9.45;;;;;;;14.97;100.00;98708.34;4519499;77;28930;-88
2021/04/02 01:44:47;;;;;;;19.42;9.30;;;;;;;15.19;100.00;98698.63;4471449;79;28581;-90
2021/04/02 01:50:52;;;;;;;19.32;8.70;;;;;;;14.41;100.00;98683.53;4482835;78;28573;-90
2021/04/02 01:56:56;;;;;;;20.60;8.80;;;;;;;14.63;100.00;98686.58;4504211;78;28566;-91
2021/04/02 02:03:01;;;;;;;20.50;9.48;;;;;;;14.47;100.00;98697.89;4509988;78;28570;-92
2021/04/02 02:09:12;;;;;;;21.80;9.95;;;;;;;14.61;100.00;98702.27;4497273;78;28549;-90
2021/04/02 02:15:16;;;;;;;22.93;9.25;;;;;;;14.78;100.00;98708.31;4492440;78;28637;-89
2021/04/02 02:21:20;;;;;;;21.75;10.23;;;;;;;15.20;100.00;98712.44;4499439;78;28585;-88
2021/04/02 02:27:23;;;;;;;18.25;9.28;;;;;;;15.46;100.00;98707.01;4496905;78;28629;-92
2021/04/02 02:33:26;;;;;;;22.82;10.63;;;;;;;14.60;100.00;98712.82;4492806;79;28606;-90
2021/04/02 02:39:31;;;;;;;21.27;9.10;;;;;;;14.63;100.00;98709.58;4510524;78;28572;-90
2021/04/02 02:45:34;;;;;;;21.20;9.88;;;;;;;14.72;100.00;98710.72;4510847;78;28619;-91
2021/04/02 02:51:40;;;;;;;23.05;10.00;;;;;;;14.64;100.00;98720.70;4493065;78;28644;-94
2021/04/02 02:57:47;;;;;;;21.02;10.13;;;;;;;14.45;100.00;98722.52;4509632;79;28573;-94
2021/04/02 03:03:53;;;;;;;24.92;10.85;;;;;;;14.43;100.00;98735.50;4514587;79;28555;-95
2021/04/02 03:09:56;;;;;;;24.43;10.20;;;;;;;14.16;100.00;98729.69;4504513;79;46661;-95
2021/04/02 03:15:59;;;;;;;25.40;10.93;;;;;;;14.22;100.00;98730.52;4402105;79;28570;-94
2021/04/02 03:22:04;;;;;;;25.60;11.43;;;;;;;14.16;100.00;98731.56;4437821;79;28559;-95
2021/04/02 03:28:10;;;;;;;25.50;13.00;;;;;;;14.55;100.00;98735.25;4506065;77;28608;-92
2021/04/02 03:34:17;;;;;;;25.35;12.07;;;;;;;14.31;100.00;98733.00;4479840;79;28530;-91
2021/04/02 03:40:24;;;;;;;25.00;12.63;;;;;;;14.19;100.00;98738.61;4483400;78;28541;-91
2021/04/02 03:46:29;;;;;;;31.48;16.52;;;;;;;13.23;100.00;98747.89;4514553;78;28550;-91
2021/04/02 03:52:38;;;;;;;40.10;20.57;;;;;;;13.50;100.00;98753.84;4494631;78;28549;-89
2021/04/02 03:58:45;;;;;;;39.70;20.62;;;;;;;12.47;100.00;98755.72;4474101;78;28558;-89
2021/04/02 04:04:53;;;;;;;51.95;24.27;;;;;;;12.36;100.00;98762.05;4447683;79;28565;-91
2021/04/02 04:10:58;;;;;;;33.08;17.12;;;;;;;12.20;100.00;98756.44;4466641;78;28925;-91
2021/04/02 04:17:03;;;;;;;25.37;14.23;;;;;;;12.15;100.00;98773.89;4514346;79;28601;-91
2021/04/02 04:23:07;;;;;;;22.13;11.33;;;;;;;12.30;100.00;98783.25;4493161;79;28586;-91
2021/04/02 04:29:14;;;;;;;12.40;6.15;;;;;;;12.55;100.00;98793.03;4489944;79;28547;-92
2021/04/02 04:35:18;;;;;;;4.65;3.37;;;;;;;11.89;100.00;98814.43;4490703;79;28542;-92
2021/04/02 04:41:25;;;;;;;5.60;2.92;;;;;;;10.73;100.00;98838.16;4501549;78;28562;-93
2021/04/02 04:47:27;;;;;;;3.60;2.47;;;;;;;11.48;100.00;98847.69;4444763;78;28555;-89
2021/04/02 04:53:32;;;;;;;6.58;2.92;;;;;;;10.92;100.00;98867.59;4358984;80;28546;-90
2021/04/02 04:59:37;;;;;;;4.12;2.80;;;;;;;10.97;100.00;98875.24;4296221;82;28642;-90
2021/04/02 05:05:42;;;;;;;2.80;2.20;;;;;;;10.76;100.00;98884.74;4312694;81;28548;-91
2021/04/02 05:11:45;;;;;;;3.52;2.35;;;;;;;10.11;100.00;98902.08;4300862;82;28572;-89
2021/04/02 05:17:48;;;;;;;3.40;2.40;;;;;;;10.43;100.00;98907.67;4299980;81;28555;-84
2021/04/02 05:23:52;;;;;;;4.03;2.92;;;;;;;10.47;100.00;98906.17;4428938;79;28544;-87
2021/04/02 05:29:55;;;;;;;4.15;3.08;;;;;;;10.11;100.00;98914.68;4346877;80;28537;-86
2021/04/02 05:35:57;;;;;;;4.78;3.72;;;;;;;10.04;100.00;98920.16;4294611;81;28666;-85
2021/04/02 05:42:06;;;;;;;7.42;4.17;;;;;;;9.21;100.00;98954.20;4468233;79;28604;-84
2021/04/02 05:48:10;;;;;;;8.18;5.80;;;;;;;9.99;100.00;98979.11;4462107;78;28621;-83
2021/04/02 05:54:15;;;;;;;7.55;5.03;;;;;;;9.47;100.00;98977.21;4464889;79;28567;-83
2021/04/02 06:00:18;;;;;;;7.73;5.27;;;;;;;9.10;100.00;98977.21;4338997;81;28542;-83
2021/04/02 06:06:21;;;;;;;7.22;4.90;;;;;;;9.19;100.00;98985.27;4335485;80;28593;-83
2021/04/02 06:12:25;;;;;;;8.45;5.45;;;;;;;9.65;100.00;98985.45;4317919;81;28628;-83
2021/04/02 06:18:27;;;;;;;8.83;6.28;;;;;;;9.03;100.00;98992.57;4318031;82;28560;-83
2021/04/02 06:24:43;;;;;;;7.50;5.67;;;;;;;9.00;100.00;98988.46;4318192;82;28596;-84
2021/04/02 06:30:51;;;;;;;7.45;4.85;;;;;;;9.19;100.00;98978.56;4297662;82;28584;-83
2021/04/02 06:37:03;;;;;;;6.33;4.75;;;;;;;9.71;100.00;98985.91;4317128;80;28556;-85
2021/04/02 06:43:06;;;;;;;6.17;4.90;;;;;;;9.51;100.00;99000.91;4286435;81;28558;-85
2021/04/02 06:49:15;;;;;;;6.12;4.20;;;;;;;9.76;100.00;99000.80;4289588;81;28582;-83
2021/04/02 06:55:20;;;;;;;5.45;3.77;;;;;;;9.35;100.00;99005.31;4310536;81;28615;-83
2021/04/02 07:01:24;;;;;;;5.75;3.87;;;;;;;9.39;100.00;98997.63;4312448;81;28572;-83
2021/04/02 07:07:27;;;;;;;4.95;3.92;;;;;;;9.70;100.00;99007.09;4301890;82;28552;-84
2021/04/02 07:13:36;;;;;;;6.78;4.10;;;;;;;9.48;100.00;99008.91;4311637;81;28620;-83
2021/04/02 07:19:40;;;;;;;4.97;3.60;;;;;;;8.72;100.00;99025.94;4278138;82;28637;-83
2021/04/02 07:25:43;;;;;;;5.22;3.85;;;;;;;9.68;100.00;99034.16;4296911;82;28568;-81
2021/04/02 07:31:47;;;;;;;6.10;4.60;;;;;;;8.85;100.00;99050.98;4323412;81;28548;-82
2021/04/02 07:37:55;;;;;;;4.80;3.42;;;;;;;8.91;100.00;99071.57;4311643;81;28602;-82
2021/04/02 07:43:58;;;;;;;6.05;4.28;;;;;;;8.99;100.00;99090.07;4278247;82;28622;-83
2021/04/02 07:50:02;;;;;;;5.75;4.30;;;;;;;8.70;100.00;99106.29;4296931;82;28586;-86
2021/04/02 07:56:15;;;;;;;8.33;5.12;;;;;;;9.24;100.00;99102.63;4297601;81;28912;-82
2021/04/02 08:02:29;;;;;;;7.20;4.35;;;;;;;9.13;100.00;99103.36;4294353;81;28578;-82
2021/04/02 08:08:43;;;;;;;7.67;5.20;;;;;;;8.96;100.00;99111.14;4287265;81;28608;-82
2021/04/02 08:14:51;;;;;;;7.90;5.42;;;;;;;8.54;100.00;99113.80;4282933;81;28628;-80
2021/04/02 08:20:55;;;;;;;6.58;4.78;;;;;;;8.95;100.00;99115.66;4291204;82;28600;-80
2021/04/02 08:26:58;;;;;;;7.30;5.08;;;;;;;8.95;100.00;99122.91;4282101;82;28563;-79
2021/04/02 08:33:00;;;;;;;7.53;5.12;;;;;;;9.29;100.00;99126.13;4295422;81;28636;-79
2021/04/02 08:39:04;;;;;;;6.72;4.83;;;;;;;9.14;100.00;99137.19;4273957;81;28603;-85
2021/04/02 08:45:09;;;;;;;6.42;4.50;;;;;;;8.87;100.00;99144.11;4297804;81;28637;-84
2021/04/02 08:51:22;;;;;;;6.62;4.90;;;;;;;8.69;100.00;99137.63;4266527;82;28570;-85
2021/04/02 08:57:28;;;;;;;7.53;5.65;;;;;;;8.36;100.00;99144.77;4264183;82;28631;-84
2021/04/02 09:03:30;;;;;;;10.08;6.42;;;;;;;9.17;100.00;99144.28;4267615;82;28584;-83
2021/04/02 09:09:33;;;;;;;6.05;4.78;;;;;;;8.99;100.00;99141.53;4254149;82;28577;-83
2021/04/02 09:15:35;;;;;;;8.03;5.62;;;;;;;9.23;100.00;99146.60;4425498;79;28545;-84
2021/04/02 09:21:38;;;;;;;9.05;6.37;;;;;;;9.08;100.00;99159.53;4417624;79;28638;-83
2021/04/02 09:27:40;;;;;;;7.83;5.35;;;;;;;9.54;100.00;99152.92;4434255;79;28542;-81
2021/04/02 09:33:49;;;;;;;6.87;4.92;;;;;;;9.60;100.00;99148.53;4426051;79;28610;-82
2021/04/02 09:40:06;;;;;;;7.08;5.00;;;;;;;9.90;100.00;99150.50;4416310;79;28592;-81
2021/04/02 09:46:17;;;;;;;5.70;4.40;;;;;;;9.93;100.00;99147.89;4422525;79;28578;-82
2021/04/02 09:52:21;;;;;;;4.83;3.60;;;;;;;10.60;100.00;99141.69;4451558;78;28566;-84
2021/04/02 09:58:26;;;;;;;5.95;4.10;;;;;;;11.66;100.00;99144.22;4465508;78;28546;-82
2021/04/02 10:04:31;;;;;;;6.20;3.87;;;;;;;12.21;96.65;99142.14;4445523;78;28681;-81
2021/04/02 10:10:35;;;;;;;5.78;4.22;;;;;;;11.32;93.88;99137.28;4442440;79;28673;-82
2021/04/02 10:16:40;;;;;;;7.12;4.30;;;;;;;11.99;91.01;99131.98;4446751;78;28556;-83
2021/04/02 10:22:42;;;;;;;8.63;4.10;;;;;;;12.80;81.99;99126.23;4440816;78;28614;-83
2021/04/02 10:28:45;;;;;;;5.28;4.20;;;;;;;13.17;74.93;99130.34;4453710;78;28947;-82
2021/04/02 10:34:48;;;;;;;5.67;4.50;;;;;;;13.05;71.08;99129.61;4435526;78;28627;-82
2021/04/02 10:40:51;;;;;;;4.95;3.95;;;;;;;12.04;77.04;99115.68;4426098;78;28648;-82
2021/04/02 10:46:54;;;;;;;4.60;3.65;;;;;;;11.78;75.11;99123.19;4450416;78;28549;-81
2021/04/02 10:52:57;;;;;;;7.33;3.98;;;;;;;11.30;76.76;99120.55;4465570;78;28605;-83
2021/04/02 10:59:03;;;;;;;5.85;4.28;;;;;;;11.71;77.07;99104.47;4436675;78;28624;-85
2021/04/02 11:05:07;;;;;;;6.25;4.17;;;;;;;10.79;75.18;99121.46;4341690;80;28587;-84
2021/04/02 11:11:09;;;;;;;5.67;4.00;;;;;;;10.96;73.89;99117.06;4456746;78;28540;-86
2021/04/02 11:17:11;;;;;;;5.28;3.67;;;;;;;11.23;77.59;99107.18;4439844;78;28562;-85
2021/04/02 11:23:17;;;;;;;6.05;3.87;;;;;;;11.64;73.96;99090.30;4494265;78;28572;-87
2021/04/02 11:29:18;;;;;;;5.58;3.90;;;;;;;11.35;76.62;99094.24;4431705;78;28588;-86
2021/04/02 11:35:20;;;;;;;5.80;3.90;;;;;;;11.78;72.32;99084.96;4343673;80;28576;-87
2021/04/02 11:41:22;;;;;;;4.75;4.00;;;;;;;12.19;71.40;99068.80;4453640;79;28583;-85
2021/04/02 11:47:24;;;;;;;5.53;3.77;;;;;;;12.07;75.41;99066.69;4451363;79;28584;-85
2021/04/02 11:53:27;;;;;;;5.12;3.50;;;;;;;12.04;74.38;99059.89;4441950;78;28672;-87
2021/04/02 11:59:29;;;;;;;4.75;3.55;;;;;;;12.06;70.67;99047.53;4433694;78;28611;-86
2021/04/02 12:05:32;;;;;;;6.55;4.45;;;;;;;11.76;67.58;99043.16;4340457;80;28572;-83
2021/04/02 12:11:34;;;;;;;5.40;3.98;;;;;;;11.35;74.29;99036.38;4303666;81;28564;-83
2021/04/02 12:17:36;;;;;;;5.95;4.30;;;;;;;11.93;71.37;99033.27;4320424;82;28619;-81
2021/04/02 12:23:40;;;;;;;5.67;4.17;;;;;;;11.89;68.61;99023.20;4274260;81;28624;-81
2021/04/02 12:29:42;;;;;;;5.22;3.62;;;;;;;12.08;76.63;99002.30;4307593;81;28551;-87
2021/04/02 12:35:44;;;;;;;6.30;4.08;;;;;;;12.21;61.60;99002.53;4328536;80;28568;-83
2021/04/02 12:41:46;;;;;;;6.30;4.42;;;;;;;11.72;60.56;99009.14;4278366;81;28579;-82
2021/04/02 12:47:49;;;;;;;7.58;4.33;;;;;;;12.12;66.17;98995.34;4283231;80;28559;-84
2021/04/02 12:53:51;;;;;;;7.25;4.78;;;;;;;12.08;67.68;98988.30;4233325;82;28603;-86
2021/04/02 12:59:53;;;;;;;6.87;4.58;;;;;;;12.18;69.17;98976.04;4242849;82;28621;-86
2021/04/02 13:05:56;;;;;;;6.03;3.95;;;;;;;12.08;61.75;98970.79;4380036;79;28599;-90
2021/04/02 13:11:58;;;;;;;6.83;4.20;;;;;;;11.84;58.81;98973.55;4408649;79;28599;-89
2021/04/02 13:18:01;;;;;;;6.55;4.05;;;;;;;11.67;58.42;98958.69;4386859;79;28541;-87
2021/04/02 13:24:05;;;;;;;5.22;3.62;;;;;;;12.07;59.09;98944.08;4390296;79;28607;-88
2021/04/02 13:30:12;;;;;;;4.30;3.20;;;;;;;11.86;51.29;98945.03;4398565;79;28566;-84
2021/04/02 13:36:19;;;;;;;4.33;3.00;;;;;;;11.58;48.76;98931.85;4390152;79;28559;-87
2021/04/02 13:42:18;;;;;;;6.22;3.75;;;;;;;11.56;50.66;98925.89;4417161;79;28570;-86
2021/04/02 13:48:21;;;;;;;5.72;3.70;;;;;;;11.46;50.87;98923.01;4408707;78;28585;-86
2021/04/02 13:54:24;;;;;;;5.47;3.27;;;;;;;11.74;51.94;98911.41;4433906;78;28613;-90
2021/04/02 14:00:29;;;;;;;4.08;2.75;;;;;;;11.58;49.27;98905.76;4449562;78;28608;-85
2021/04/02 14:06:31;;;;;;;5.00;3.42;;;;;;;12.17;48.57;98891.69;4482439;78;28557;-85
2021/04/02 14:12:33;;;;;;;5.78;4.03;;;;;;;11.93;52.41;98900.42;4460425;78;28640;-86
2021/04/02 14:18:35;;;;;;;6.50;3.77;;;;;;;12.32;54.54;98887.59;4464333;79;28569;-83
2021/04/02 14:24:39;;;;;;;6.47;4.20;;;;;;;12.65;52.47;98865.16;4458907;78;28600;-88
2021/04/02 14:30:44;;;;;;;7.33;4.22;;;;;;;12.57;54.96;98855.34;4478529;78;28605;-86
2021/04/02 14:36:47;;;;;;;5.87;3.70;;;;;;;12.06;54.51;98854.32;4469395;78;28581;-85
2021/04/02 14:42:50;;;;;;;6.03;4.05;;;;;;;12.70;56.51;98846.88;4477406;78;28623;-84
2021/04/02 14:48:52;;;;;;;8.53;3.98;;;;;;;13.08;57.08;98843.84;4445862;79;28621;-86
2021/04/02 14:54:55;;;;;;;6.85;4.87;;;;;;;12.83;61.59;98841.11;4457092;79;28586;-90
2021/04/02 15:00:58;;;;;;;7.00;5.00;;;;;;;13.03;61.68;98835.67;4346894;80;28604;-83
2021/04/02 15:07:00;;;;;;;8.40;5.55;;;;;;;13.13;60.30;98834.16;4337170;80;28569;-79
2021/04/02 15:13:03;;;;;;;8.53;5.45;;;;;;;13.13;61.67;98844.44;4431594;78;28562;-83
2021/04/02 15:19:05;;;;;;;10.15;6.05;;;;;;;13.12;62.58;98832.02;4434556;78;28551;-82
2021/04/02 15:25:09;;;;;;;9.15;6.28;;;;;;;12.99;62.55;98830.52;4437105;78;28585;-83
2021/04/02 15:31:11;;;;;;;8.73;6.40;;;;;;;13.08;62.59;98826.30;4438343;78;28581;-83
2021/04/02 15:37:15;;;;;;;9.90;6.62;;;;;;;13.14;66.54;98822.30;4447192;78;28555;-83
2021/04/02 15:43:17;;;;;;;10.50;7.17;;;;;;;13.04;67.62;98818.96;4445419;78;28569;-85
2021/04/02 15:49:19;;;;;;;11.83;7.70;;;;;;;12.96;67.11;98802.66;4449588;78;28535;-83
2021/04/02 15:55:22;;;;;;;12.33;7.53;;;;;;;12.84;62.39;98800.12;4445110;78;28538;-83
2021/04/02 16:01:24;;;;;;;12.58;8.28;;;;;;;12.87;64.15;98802.30;4437583;78;28543;-83
2021/04/02 16:07:26;;;;;;;13.03;8.28;;;;;;;12.74;67.63;98801.34;4460728;78;28589;-83
2021/04/02 16:13:30;;;;;;;13.45;8.45;;;;;;;12.62;66.42;98792.02;4460029;78;28611;-86
2021/04/02 16:19:35;;;;;;;10.70;7.87;;;;;;;12.47;67.47;98792.12;4457629;78;28532;-85
2021/04/02 16:25:37;;;;;;;15.78;9.53;;;;;;;12.52;68.51;98800.80;4454727;79;28542;-87
2021/04/02 16:31:39;;;;;;;14.25;9.03;;;;;;;12.29;67.98;98789.19;4447622;78;28577;-81
2021/04/02 16:37:44;;;;;;;15.15;9.60;;;;;;;11.99;68.27;98779.02;4453585;78;28617;-82
2021/04/02 16:43:46;;;;;;;14.23;9.08;;;;;;;11.88;70.34;98784.52;4343383;80;28553;-82
2021/04/02 16:49:49;;;;;;;13.40;9.10;;;;;;;11.68;71.70;98789.31;4325811;80;28674;-82
2021/04/02 16:55:53;;;;;;;17.32;10.32;;;;;;;11.59;72.05;98786.73;4307375;81;28572;-81
2021/04/02 17:01:56;;;;;;;15.20;10.15;;;;;;;11.32;73.71;98791.41;4301432;81;28545;-82
2021/04/02 17:08:05;;;;;;;18.75;11.60;;;;;;;11.19;73.00;98791.17;4311803;82;28561;-81
2021/04/02 17:14:09;;;;;;;18.25;10.95;;;;;;;11.22;73.61;98786.65;4303537;81;28653;-82
2021/04/02 17:20:15;;;;;;;19.87;11.57;;;;;;;11.18;73.09;98791.41;4301894;80;28600;-82
2021/04/02 17:26:20;;;;;;;18.92;11.48;;;;;;;10.93;75.98;98796.06;4307769;81;28919;-83
2021/04/02 17:32:23;;;;;;;19.27;11.73;;;;;;;10.74;76.85;98797.60;4294569;81;28565;-81
2021/04/02 17:38:26;;;;;;;19.30;12.63;;;;;;;10.53;79.33;98806.30;4293664;81;28962;-82
2021/04/02 17:44:30;;;;;;;23.12;13.18;;;;;;;10.35;81.38;98809.89;4281553;81;28609;-83
2021/04/02 17:50:32;;;;;;;20.62;12.55;;;;;;;10.14;83.77;98824.22;4305741;81;28548;-83
2021/04/02 17:56:34;;;;;;;22.20;13.48;;;;;;;10.07;83.81;98824.33;4293999;81;28572;-83
2021/04/02 18:02:37;;;;;;;19.40;12.45;;;;;;;9.98;83.95;98822.53;4295305;81;28598;-82
2021/04/02 18:08:40;;;;;;;21.25;13.35;;;;;;;9.62;88.36;98833.21;4305748;81;28550;-81
2021/04/02 18:14:44;;;;;;;23.60;13.90;;;;;;;9.42;90.31;98828.13;4294155;81;28570;-82
2021/04/02 18:20:46;;;;;;;26.25;14.38;;;;;;;9.43;89.01;98824.42;4278261;81;28672;-82
2021/04/02 18:26:48;;;;;;;28.85;16.95;;;;;;;9.20;91.40;98839.36;4273972;82;28563;-85
2021/04/02 18:32:54;;;;;;;33.30;18.67;;;;;;;9.33;87.83;98850.44;4287835;81;28625;-82
2021/04/02 18:38:56;;;;;;;36.60;19.73;;;;;;;9.42;85.91;98848.79;4263609;82;28658;-81
2021/04/02 18:44:58;;;;;;;33.23;17.62;;;;;;;9.49;87.88;98847.64;4301896;81;28631;-80
2021/04/02 18:51:00;;;;;;;33.63;18.30;;;;;;;9.06;92.04;98852.16;4296706;81;28635;-80
2021/04/02 18:57:05;;;;;;;34.80;19.32;;;;;;;9.10;88.33;98844.98;4289406;82;28604;-84
2021/04/02 19:03:07;;;;;;;35.70;20.37;;;;;;;8.89;90.31;98840.39;4432540;78;28635;-81
2021/04/02 19:09:11;;;;;;;32.55;18.05;;;;;;;8.73;94.40;98818.50;4439660;78;28544;-81
2021/04/02 19:15:14;;;;;;;29.55;17.32;;;;;;;8.72;94.03;98811.50;4429612;78;28618;-80
2021/04/02 19:21:16;;;;;;;29.52;15.50;;;;;;;8.50;95.81;98814.64;4457962;78;28540;-82
2021/04/02 19:27:18;;;;;;;33.10;18.07;;;;;;;8.51;96.63;98819.48;4447236;78;28610;-80
2021/04/02 19:33:20;;;;;;;35.20;18.42;;;;;;;8.68;94.23;98819.70;4437028;78;28584;-81
2021/04/02 20:48:25;;;;;;;;;;;;;;;;;;;;;
2021/04/02 21:23:15;;;;;;;47.83;23.22;;;;;;;7.07;100.00;98786.53;4471485;77;75757;-85
2021/04/02 21:29:17;;;;;;;53.38;24.45;;;;;;;7.34;100.00;98789.55;4414907;80;28655;-88
2021/04/02 21:35:21;;;;;;;51.28;23.35;;;;;;;7.27;100.00;98764.20;4373079;79;28603;-86
2021/04/02 21:41:23;;;;;;;54.15;26.62;;;;;;;7.27;100.00;98754.04;4412393;80;28683;-89
2021/04/02 21:47:26;;;;;;;50.85;24.80;;;;;;;7.39;100.00;98750.45;4449473;78;28587;-87
2021/04/02 21:53:28;;;;;;;54.15;26.48;;;;;;;7.13;100.00;98757.31;4418788;79;28620;-83
2021/04/02 21:59:32;;;;;;;48.75;24.05;;;;;;;7.13;100.00;98754.64;4448677;79;28618;-87
2021/04/02 22:05:35;;;;;;;49.73;25.12;;;;;;;6.97;100.00;98754.94;4464876;79;28681;-88
2021/04/02 22:11:37;;;;;;;52.35;25.57;;;;;;;6.67;100.00;98762.17;4442923;78;28729;-89
2021/04/02 22:17:40;;;;;;;52.67;24.95;;;;;;;6.67;100.00;98780.07;4399370;78;28633;-89
2021/04/02 22:23:53;;;;;;;49.25;24.30;;;;;;;6.71;100.00;98797.30;4432501;78;28608;-90
2021/04/02 22:30:00;;;;;;;52.45;24.23;;;;;;;6.82;100.00;98790.45;4500832;78;28617;-88
2021/04/02 22:36:04;;;;;;;65.63;28.20;;;;;;;7.00;100.00;98784.94;4461394;78;35443;-88
2021/04/02 22:42:07;;;;;;;59.25;28.12;;;;;;;7.01;100.00;98787.91;4436335;79;28627;-89
2021/04/02 22:48:13;;;;;;;58.45;27.55;;;;;;;6.94;100.00;98788.78;4465784;79;28600;-87
2021/04/02 22:54:15;;;;;;;;;;;;;;;7.02;100.00;98790.88;4474381;78;28613;-87
2021/04/02 23:00:25;;;;;;;63.80;28.73;;;;;;;7.13;100.00;98791.53;4432733;78;20282;-87
2021/04/02 23:06:28;;;;;;;57.83;27.50;;;;;;;7.09;100.00;98798.36;4432330;78;28615;-87
2021/04/02 23:12:30;;;;;;;57.58;26.55;;;;;;;7.28;100.00;98807.82;4452142;78;28655;-87
2021/04/02 23:18:32;;;;;;;60.95;27.82;;;;;;;7.44;100.00;98803.27;4443393;78;28587;-87
2021/04/02 23:24:37;;;;;;;59.70;26.60;;;;;;;7.67;100.00;98807.25;4443745;78;28586;-87
2021/04/02 23:30:43;;;;;;;64.72;29.60;;;;;;;7.65;100.00;98806.63;4396326;80;28644;-91
2021/04/02 23:36:45;;;;;;;64.70;30.08;;;;;;;7.63;100.00;98805.52;4409491;80;28604;-88
2021/04/02 23:43:07;;;;;;;67.05;31.10;;;;;;;7.68;100.00;98806.21;4415718;78;28604;-89
2021/04/02 23:49:09;;;;;;;71.55;31.48;;;;;;;7.80;100.00;98796.43;4418156;79;28631;-88
2021/04/02 23:55:13;;;;;;;72.42;32.85;;;;;;;7.69;100.00;98797.14;4422442;79;28597;-88
